createdAt,value
2019-01-05T00:02:27.524Z,19.40
2019-01-05T00:05:15.675Z,23.13
2019-01-05T00:08:04.368Z,25.47
2019-01-05T00:10:51.768Z,21.23
2019-01-05T00:13:46.976Z,21.33
2019-01-05T00:16:40.008Z,24.30
2019-01-05T00:19:36.176Z,23.63
2019-01-05T00:22:25.280Z,20.27
2019-01-05T00:25:13.428Z,25.10
2019-01-05T00:28:01.412Z,29.00
2019-01-05T00:30:50.780Z,26.77
2019-01-05T00:33:44.652Z,25.37
2019-01-05T00:36:42.280Z,22.20
2019-01-05T00:39:34.620Z,29.53
2019-01-05T00:42:22.639Z,27.37
2019-01-05T00:45:11.875Z,27.13
2019-01-05T00:48:08.472Z,32.90
2019-01-05T00:50:58.744Z,26.30
2019-01-05T00:53:46.848Z,29.37
2019-01-05T00:56:42.814Z,30.50
2019-01-05T00:59:32.104Z,27.17
2019-01-05T01:02:20.613Z,27.13
2019-01-05T01:05:12.163Z,29.43
2019-01-05T01:08:07.528Z,28.93
2019-01-05T01:10:54.831Z,29.87
2019-01-05T01:13:50.184Z,25.93
2019-01-05T01:16:39.609Z,26.70
2019-01-05T01:19:44.084Z,27.07
2019-01-05T01:22:37.666Z,27.63
2019-01-05T01:25:27.019Z,25.17
2019-01-05T01:28:18.683Z,27.37
2019-01-05T01:31:13.268Z,26.80
2019-01-05T01:34:08.660Z,25.67
2019-01-05T01:37:04.947Z,23.33
2019-01-05T01:39:49.611Z,26.03
2019-01-05T01:42:37.641Z,24.87
2019-01-05T01:45:25.203Z,23.73
2019-01-05T01:48:20.018Z,25.57
2019-01-05T01:51:10.164Z,27.77
2019-01-05T01:54:03.558Z,21.57
2019-01-05T01:57:08.506Z,26.27
2019-01-05T02:00:06.088Z,22.27
2019-01-05T02:02:56.100Z,23.93
2019-01-05T02:06:02.136Z,20.53
2019-01-05T02:08:57.556Z,21.53
2019-01-05T02:11:51.077Z,24.15
2019-01-05T02:14:56.403Z,27.13
2019-01-05T02:17:56.956Z,20.70
2019-01-05T02:20:58.968Z,21.50
2019-01-05T02:24:20.928Z,21.00
2019-01-05T02:27:38.819Z,27.37
2019-01-05T02:30:48.251Z,21.27
2019-01-05T02:34:03.191Z,20.03
2019-01-05T02:37:50.802Z,22.93
2019-01-05T02:41:22.310Z,20.67
2019-01-05T02:45:01.016Z,21.30
2019-01-05T02:48:39.671Z,23.00
2019-01-05T02:51:58.289Z,23.43
2019-01-05T02:55:37.064Z,23.33
2019-01-05T02:59:30.125Z,25.37
2019-01-05T03:03:04.936Z,24.40
2019-01-05T03:06:28.410Z,23.70
2019-01-05T03:09:33.086Z,23.53
2019-01-05T03:13:14.919Z,25.57
2019-01-05T03:16:58.089Z,26.60
2019-01-05T03:19:53.348Z,27.63
2019-01-05T03:23:11.045Z,27.20
2019-01-05T03:26:47.871Z,25.93
2019-01-05T03:29:54.543Z,23.57
2019-01-05T03:33:47.180Z,27.40
2019-01-05T03:37:01.257Z,24.87
2019-01-05T03:40:51.652Z,23.87
2019-01-05T03:44:26.209Z,23.13
2019-01-05T03:48:05.755Z,25.07
2019-01-05T03:51:26.758Z,26.62
2019-01-05T03:54:51.953Z,25.70
2019-01-05T03:58:06.595Z,29.47
2019-01-05T04:01:38.455Z,28.30
2019-01-05T04:05:13.692Z,28.37
2019-01-05T04:08:24.173Z,24.23
2019-01-05T04:11:52.867Z,25.50
2019-01-05T04:15:18.894Z,28.97
2019-01-05T04:18:27.204Z,29.43
2019-01-05T04:22:01.528Z,30.00
2019-01-05T04:25:14.160Z,26.33
2019-01-05T04:28:48.190Z,27.00
2019-01-05T04:32:17.311Z,27.17
2019-01-05T04:35:57.405Z,30.23
2019-01-05T04:39:29.282Z,26.30
2019-01-05T04:42:49.526Z,25.37
2019-01-05T04:46:14.516Z,24.17
2019-01-05T04:49:39.324Z,27.23
2019-01-05T04:52:47.104Z,26.17
2019-01-05T04:56:39.951Z,27.13
2019-01-05T05:00:03.163Z,27.33
2019-01-05T05:03:30.880Z,30.77
2019-01-05T05:06:26.004Z,25.83
2019-01-05T05:10:00.650Z,25.57
2019-01-05T05:13:20.036Z,25.52
2019-01-05T05:17:06.940Z,26.03
2019-01-05T05:20:30.752Z,23.93
2019-01-05T05:23:53.887Z,32.50
2019-01-05T05:27:28.161Z,26.60
2019-01-05T05:30:40.780Z,29.10
2019-01-05T05:34:21.695Z,33.67
2019-01-05T05:37:57.044Z,28.60
2019-01-05T05:41:41.698Z,27.27
2019-01-05T05:45:29.489Z,25.77
2019-01-05T05:49:00.094Z,25.67
2019-01-05T05:52:26.066Z,29.30
2019-01-05T05:55:52.480Z,28.33
2019-01-05T05:59:30.347Z,26.80
2019-01-05T06:02:27.894Z,30.43
2019-01-05T06:05:53.328Z,27.80
2019-01-05T06:09:15.127Z,28.90
2019-01-05T06:13:02.539Z,28.03
2019-01-05T06:16:25.598Z,29.63
2019-01-05T06:20:11.279Z,28.30
2019-01-05T06:23:43.397Z,28.50
2019-01-05T06:27:30.535Z,30.97
2019-01-05T06:30:53.686Z,33.10
2019-01-05T06:34:05.768Z,30.47
2019-01-05T06:38:01.928Z,29.87
2019-01-05T06:41:46.180Z,30.95
2019-01-05T06:45:22.220Z,28.37
2019-01-05T06:48:27.455Z,30.97
2019-01-05T06:52:03.884Z,26.93
2019-01-05T06:55:31.240Z,27.98
2019-01-05T06:59:03.352Z,34.00
2019-01-05T07:02:24.668Z,24.07
2019-01-05T07:05:51.268Z,30.47
2019-01-05T07:09:11.119Z,32.53
2019-01-05T07:12:45.696Z,27.67
2019-01-05T07:16:17.971Z,29.87
2019-01-05T07:19:23.143Z,27.33
2019-01-05T07:22:43.588Z,31.27
2019-01-05T07:25:59.095Z,32.47
2019-01-05T07:29:08.295Z,28.40
2019-01-05T07:32:36.123Z,29.30
2019-01-05T07:36:10.132Z,31.83
2019-01-05T07:40:00.673Z,28.03
2019-01-05T07:43:06.059Z,29.00
2019-01-05T07:46:31.604Z,27.90
2019-01-05T07:50:00.404Z,26.47
2019-01-05T07:53:22.798Z,25.47
2019-01-05T07:56:29.881Z,32.77
2019-01-05T07:59:55.560Z,29.70
2019-01-05T08:03:15.952Z,31.62
2019-01-05T08:07:12.751Z,30.37
2019-01-05T08:10:21.959Z,30.43
2019-01-05T08:13:40.263Z,34.37
2019-01-05T08:16:55.417Z,32.87
2019-01-05T08:20:43.772Z,29.37
2019-01-05T08:23:57.764Z,32.80
2019-01-05T08:27:04.399Z,34.67
2019-01-05T08:30:32.943Z,30.13
2019-01-05T08:33:41.948Z,26.87
2019-01-05T08:36:47.160Z,31.97
2019-01-05T08:40:37.551Z,30.40
2019-01-05T08:43:42.644Z,29.63
2019-01-05T08:47:02.916Z,33.53
2019-01-05T08:50:15.403Z,30.70
2019-01-05T08:56:21.812Z,31.57
2019-01-05T08:59:44.346Z,31.17
2019-01-05T09:02:44.323Z,27.73
2019-01-05T09:06:13.142Z,26.33
2019-01-05T09:09:30.038Z,29.53
2019-01-05T09:12:35.624Z,28.23
2019-01-05T09:16:06.041Z,26.27
2019-01-05T09:19:40.915Z,28.53
2019-01-05T09:23:12.100Z,27.27
2019-01-05T09:26:24.611Z,29.40
2019-01-05T09:29:22.996Z,26.47
2019-01-05T09:32:41.221Z,29.57
2019-01-05T09:36:13.012Z,26.53
2019-01-05T09:39:26.308Z,28.30
2019-01-05T09:43:17.398Z,29.50
2019-01-05T09:47:07.839Z,31.80
2019-01-05T09:50:38.735Z,33.33
2019-01-05T09:53:53.992Z,29.50
2019-01-05T09:57:14.016Z,30.77
2019-01-05T10:00:56.677Z,33.53
2019-01-05T10:04:40.512Z,34.60
2019-01-05T10:08:22.023Z,31.27
2019-01-05T10:11:31.841Z,35.20
2019-01-05T10:15:30.996Z,35.80
2019-01-05T10:18:32.067Z,31.17
2019-01-05T10:21:41.560Z,33.70
2019-01-05T10:24:49.223Z,34.13
2019-01-05T10:28:26.644Z,35.37
2019-01-05T10:31:57.445Z,34.27
2019-01-05T10:35:18.974Z,41.83
2019-01-05T10:38:49.664Z,33.00
2019-01-05T10:42:08.396Z,34.03
2019-01-05T10:45:32.188Z,34.87
2019-01-05T10:48:29.996Z,36.97
2019-01-05T10:51:42.899Z,36.80
2019-01-05T10:55:15.673Z,36.47
2019-01-05T10:58:34.052Z,39.30
2019-01-05T11:01:51.380Z,33.77
2019-01-05T11:05:16.337Z,31.97
2019-01-05T11:08:49.869Z,31.47
2019-01-05T11:12:32.264Z,31.73
2019-01-05T11:15:37.147Z,35.13
2019-01-05T11:18:49.447Z,29.27
2019-01-05T11:22:04.659Z,32.80
2019-01-05T11:25:26.189Z,31.97
2019-01-05T11:28:38.823Z,30.53
2019-01-05T11:31:58.184Z,34.50
2019-01-05T11:35:55.336Z,31.17
2019-01-05T11:39:00.826Z,32.98
2019-01-05T11:42:35.082Z,32.63
2019-01-05T11:45:31.861Z,32.27
2019-01-05T11:48:32.849Z,34.77
2019-01-05T11:51:47.805Z,36.87
2019-01-05T11:55:13.600Z,30.40
2019-01-05T11:58:34.804Z,30.40
2019-01-05T12:01:49.625Z,32.23
2019-01-05T12:04:56.363Z,28.50
2019-01-05T12:08:24.212Z,27.83
2019-01-05T12:11:48.640Z,30.37
2019-01-05T12:15:04.083Z,29.03
2019-01-05T12:18:09.405Z,29.00
2019-01-05T12:21:44.444Z,32.00
2019-01-05T12:25:12.208Z,28.87
2019-01-05T12:28:18.416Z,31.67
2019-01-05T12:31:32.456Z,26.57
2019-01-05T12:35:09.388Z,27.47
2019-01-05T12:38:08.108Z,29.73
2019-01-05T12:41:40.111Z,28.10
2019-01-05T12:44:49.357Z,29.43
2019-01-05T12:48:19.762Z,28.80
2019-01-05T12:51:43.793Z,31.40
2019-01-05T12:55:24.216Z,33.33
2019-01-05T12:58:48.583Z,31.83
2019-01-05T13:02:00.812Z,34.10
2019-01-05T13:05:23.559Z,33.27
2019-01-05T13:08:52.847Z,33.93
2019-01-05T13:12:33.483Z,41.43
2019-01-05T13:15:39.602Z,30.73
2019-01-05T13:18:59.164Z,32.43
2019-01-05T13:21:51.634Z,30.33
2019-01-05T13:25:02.084Z,33.87
2019-01-05T13:28:18.788Z,35.07
2019-01-05T13:31:50.892Z,36.00
2019-01-05T13:35:22.277Z,32.20
2019-01-05T13:39:07.217Z,30.83
2019-01-05T13:42:55.493Z,29.95
2019-01-05T13:46:02.250Z,25.97
2019-01-05T13:49:15.035Z,27.00
2019-01-05T13:52:25.989Z,24.17
2019-01-05T13:55:09.682Z,26.63
2019-01-05T13:58:16.716Z,26.03
2019-01-05T14:01:04.036Z,24.27
2019-01-05T14:03:51.382Z,25.33
2019-01-05T14:06:39.266Z,21.53
2019-01-05T14:09:42.938Z,20.05
2019-01-05T14:12:47.454Z,15.37
2019-01-05T14:15:45.239Z,16.90
2019-01-05T14:18:42.320Z,16.07
2019-01-05T14:21:46.749Z,18.00
2019-01-05T14:24:38.435Z,16.43
2019-01-05T14:27:25.586Z,20.07
2019-01-05T14:30:17.000Z,15.17
2019-01-05T14:33:08.440Z,16.20
2019-01-05T14:35:58.746Z,14.23
2019-01-05T14:38:53.597Z,15.83
2019-01-05T14:41:45.889Z,19.70
2019-01-05T14:44:33.365Z,18.27
2019-01-05T14:47:21.436Z,17.80
2019-01-05T14:50:08.886Z,22.40
2019-01-05T14:53:00.600Z,19.10
2019-01-05T14:55:48.491Z,16.67
2019-01-05T14:58:43.443Z,22.80
2019-01-05T15:01:44.103Z,16.10
2019-01-05T15:04:36.051Z,20.83
2019-01-05T15:07:30.535Z,17.67
2019-01-05T15:10:17.830Z,20.60
2019-01-05T15:13:19.284Z,18.33
2019-01-05T15:16:23.620Z,20.97
2019-01-05T15:19:10.947Z,21.13
2019-01-05T15:22:02.904Z,18.60
2019-01-05T15:24:50.717Z,20.27
2019-01-05T15:27:52.324Z,18.85
2019-01-05T15:31:00.191Z,17.07
2019-01-05T15:33:52.053Z,17.67
2019-01-05T15:36:46.772Z,19.00
2019-01-05T15:39:39.049Z,19.07
2019-01-05T15:42:41.981Z,20.10
2019-01-05T15:45:29.456Z,21.30
2019-01-05T15:48:16.771Z,18.93
2019-01-05T15:51:04.554Z,16.17
2019-01-05T15:53:52.520Z,14.70
2019-01-05T15:56:41.272Z,16.00
2019-01-05T15:59:36.540Z,18.43
2019-01-05T16:02:25.302Z,15.40
2019-01-05T16:05:29.285Z,18.20
2019-01-05T16:08:16.431Z,15.37
2019-01-05T16:11:18.624Z,19.77
2019-01-05T16:14:05.945Z,22.07
2019-01-05T16:16:54.555Z,21.93
2019-01-05T16:19:46.576Z,68.10
2019-01-05T16:22:35.322Z,60.80
2019-01-05T16:25:34.840Z,74.67
2019-01-05T16:28:22.622Z,160.30
2019-01-05T16:31:26.060Z,56.27
2019-01-05T16:34:25.555Z,224.23
2019-01-05T16:37:16.979Z,199.87
2019-01-05T16:40:04.505Z,69.23
2019-01-05T16:42:51.513Z,39.60
2019-01-05T16:45:46.797Z,22.20
2019-01-05T16:48:51.403Z,22.90
2019-01-05T16:51:58.756Z,20.97
2019-01-05T16:54:46.799Z,19.50
2019-01-05T16:57:47.910Z,20.07
2019-01-05T17:00:35.138Z,21.47
2019-01-05T17:03:27.692Z,19.77
2019-01-05T17:06:17.586Z,20.37
2019-01-05T17:09:05.121Z,21.10
2019-01-05T17:12:00.513Z,18.60
2019-01-05T17:14:55.160Z,22.57
2019-01-05T17:17:53.593Z,19.73
2019-01-05T17:20:37.433Z,26.83
2019-01-05T17:23:26.630Z,23.90
2019-01-05T17:26:24.465Z,23.07
2019-01-05T17:29:19.416Z,21.10
2019-01-05T17:32:16.974Z,22.37
2019-01-05T17:35:05.601Z,21.87
2019-01-05T17:38:00.264Z,21.13
2019-01-05T17:40:47.767Z,27.60
2019-01-05T17:43:34.815Z,24.43
2019-01-05T17:46:24.059Z,19.87
2019-01-05T17:49:12.162Z,21.60
2019-01-05T17:52:00.045Z,20.63
2019-01-05T17:54:47.275Z,25.53
2019-01-05T17:57:48.302Z,20.77
2019-01-05T18:00:35.648Z,24.90
2019-01-05T18:03:23.349Z,26.83
2019-01-05T18:06:11.520Z,23.53
2019-01-05T18:08:59.331Z,26.90
2019-01-05T18:12:03.127Z,21.03
2019-01-05T18:14:51.002Z,23.87
2019-01-05T18:17:49.099Z,21.67
2019-01-05T18:20:56.991Z,20.27
2019-01-05T18:24:01.393Z,21.90
2019-01-05T18:26:48.847Z,22.98
2019-01-05T18:29:41.889Z,18.30
2019-01-05T18:32:36.494Z,20.70
2019-01-05T18:35:37.960Z,19.10
2019-01-05T18:38:35.614Z,23.80
2019-01-05T18:41:22.526Z,53.23
2019-01-05T18:44:14.378Z,58.67
2019-01-05T18:47:02.252Z,56.70
2019-01-05T18:49:44.219Z,39.88
2019-01-05T18:52:31.494Z,37.37
2019-01-05T18:55:19.714Z,29.80
2019-01-05T18:58:21.093Z,41.57
2019-01-05T19:01:08.833Z,30.27
2019-01-05T19:03:57.133Z,19.60
2019-01-05T19:06:45.280Z,20.80
2019-01-05T19:09:49.728Z,18.23
2019-01-05T19:12:38.813Z,20.20
2019-01-05T19:15:33.735Z,17.70
2019-01-05T19:18:28.385Z,18.90
2019-01-05T19:21:29.258Z,25.27
2019-01-05T19:24:29.995Z,21.47
2019-01-05T19:27:19.231Z,17.17
2019-01-05T19:30:07.892Z,20.07
2019-01-05T19:32:56.496Z,17.87
2019-01-05T19:35:49.618Z,19.40
2019-01-05T19:38:37.386Z,18.50
2019-01-05T19:41:44.619Z,19.50
2019-01-05T19:44:31.701Z,15.83
2019-01-05T19:47:38.295Z,15.67
2019-01-05T19:50:27.033Z,17.27
2019-01-05T19:53:24.848Z,16.50
2019-01-05T19:56:12.298Z,16.40
2019-01-05T19:59:13.003Z,16.63
2019-01-05T20:02:00.406Z,17.83
2019-01-05T20:04:49.040Z,16.27
2019-01-05T20:07:41.396Z,16.23
2019-01-05T20:10:48.619Z,22.33
2019-01-05T20:13:37.308Z,15.77
2019-01-05T20:16:25.079Z,15.37
2019-01-05T20:19:19.603Z,18.20
2019-01-05T20:22:14.858Z,14.97
2019-01-05T20:25:03.058Z,15.37
2019-01-05T20:28:00.968Z,14.17
2019-01-05T20:30:52.778Z,13.37
2019-01-05T20:33:47.501Z,16.03
2019-01-05T20:36:36.101Z,14.13
2019-01-05T20:39:43.720Z,17.10
2019-01-05T20:42:30.932Z,14.97
2019-01-05T20:45:37.996Z,12.80
2019-01-05T20:48:45.501Z,14.30
2019-01-05T20:51:48.621Z,13.20
2019-01-05T20:54:55.603Z,14.97
2019-01-05T20:57:42.626Z,13.97
2019-01-05T21:00:46.993Z,12.00
2019-01-05T21:03:35.032Z,13.87
2019-01-05T21:06:27.143Z,17.47
2019-01-05T21:09:14.669Z,15.07
2019-01-05T21:12:15.893Z,18.40
2019-01-05T21:15:10.375Z,14.57
2019-01-05T21:18:07.418Z,14.00
2019-01-05T21:20:55.068Z,12.63
2019-01-05T21:23:42.585Z,14.90
2019-01-05T21:26:31.778Z,14.57
2019-01-05T21:29:23.291Z,10.60
2019-01-05T21:32:10.764Z,12.97
2019-01-05T21:35:15.272Z,11.73
2019-01-05T21:38:04.551Z,10.23
2019-01-05T21:40:52.203Z,9.93
2019-01-05T21:43:39.372Z,11.60
2019-01-05T21:46:40.433Z,10.20
2019-01-05T21:49:27.729Z,10.63
2019-01-05T21:52:14.887Z,10.87
2019-01-05T21:55:19.653Z,12.23
2019-01-05T21:58:14.725Z,12.27
2019-01-05T22:01:02.449Z,15.70
2019-01-05T22:03:44.498Z,8.63
2019-01-05T22:06:36.282Z,8.77
2019-01-05T22:09:26.232Z,9.30
2019-01-05T22:12:15.500Z,15.07
2019-01-05T22:15:13.845Z,12.47
2019-01-05T22:18:20.881Z,8.90
2019-01-05T22:21:15.092Z,11.27
2019-01-05T22:24:19.148Z,10.17
2019-01-05T22:27:17.600Z,9.10
2019-01-05T22:30:09.940Z,11.43
2019-01-05T22:33:01.951Z,10.47
2019-01-05T22:35:49.108Z,12.63
2019-01-05T22:38:44.174Z,11.93
2019-01-05T22:41:35.224Z,14.53
2019-01-05T22:44:27.219Z,10.53
2019-01-05T22:47:14.172Z,10.50
2019-01-05T22:50:21.532Z,9.87
2019-01-05T22:53:10.826Z,11.43
2019-01-05T22:56:15.152Z,9.13
2019-01-05T22:59:04.453Z,8.70
2019-01-05T23:01:56.759Z,10.53
2019-01-05T23:04:51.663Z,9.63
2019-01-05T23:07:51.508Z,8.50
2019-01-05T23:10:33.369Z,10.93
2019-01-05T23:13:21.544Z,12.23
2019-01-05T23:16:16.872Z,11.00
2019-01-05T23:19:15.444Z,9.33
2019-01-05T23:21:55.776Z,10.63
2019-01-05T23:24:44.425Z,12.10
2019-01-05T23:27:34.293Z,12.00
2019-01-05T23:30:23.405Z,8.97
2019-01-05T23:33:06.733Z,12.57
2019-01-05T23:35:54.239Z,9.00
2019-01-05T23:38:50.018Z,11.60
2019-01-05T23:41:33.329Z,11.87
2019-01-05T23:44:21.357Z,13.53
2019-01-05T23:47:09.396Z,8.77
2019-01-05T23:49:56.628Z,9.97
2019-01-05T23:52:44.500Z,10.07
2019-01-05T23:55:48.971Z,12.73
2019-01-05T23:59:08.280Z,10.63
